Time;durP1;ratioP1;P1;durP2;ratioP2;P2;SDS_P1;SDS_P2;PMS_P1;PMS_P2;Temp;Humidity;BMP_temperature;BMP_pressure;BME280_temperature;BME280_humidity;BME280_pressure;Samples;Min_cycle;Max_cycle;Signal;HPM_P1;HPM_P2
2023/04/08 00:00:16;;;;;;;11.87;9.47;;;5.80;99.90;;;;;;5061992;28;20451;-77
2023/04/08 00:02:43;;;;;;;17.00;11.10;;;5.90;99.90;;;;;;5072024;28;20849;-74
2023/04/08 00:05:10;;;;;;;15.07;10.67;;;5.80;99.90;;;;;;5070439;28;20609;-75
2023/04/08 00:07:37;;;;;;;11.50;9.47;;;5.80;99.90;;;;;;5064648;28;20486;-75
2023/04/08 00:10:05;;;;;;;16.60;11.63;;;5.80;99.90;;;;;;5064852;28;20448;-74
2023/04/08 00:12:33;;;;;;;11.43;9.63;;;6.00;99.90;;;;;;5072492;28;20455;-74
2023/04/08 00:15:01;;;;;;;12.63;10.60;;;5.90;99.90;;;;;;5070518;28;20455;-73
2023/04/08 00:17:28;;;;;;;11.60;8.90;;;5.90;99.90;;;;;;5072838;28;20488;-74
2023/04/08 00:19:55;;;;;;;14.10;10.80;;;5.90;99.90;;;;;;5066153;28;20505;-74
2023/04/08 00:22:22;;;;;;;12.90;10.60;;;5.90;99.90;;;;;;5078241;28;20458;-74
2023/04/08 00:24:49;;;;;;;11.53;9.63;;;6.00;99.90;;;;;;5073181;28;20883;-74
2023/04/08 00:27:16;;;;;;;11.87;10.23;;;6.00;99.90;;;;;;5066033;28;20461;-74
2023/04/08 00:29:43;;;;;;;11.43;10.07;;;5.90;99.90;;;;;;5076349;28;20451;-75
2023/04/08 00:32:11;;;;;;;12.50;10.47;;;5.80;99.90;;;;;;5075484;28;20843;-74
2023/04/08 00:34:38;;;;;;;11.93;9.30;;;5.80;99.90;;;;;;5073781;28;20951;-74
2023/04/08 00:37:05;;;;;;;11.70;9.53;;;5.80;99.90;;;;;;5075350;28;20541;-74
2023/04/08 00:39:32;;;;;;;12.83;10.03;;;5.80;99.90;;;;;;5074921;28;20486;-75
2023/04/08 00:42:00;;;;;;;11.90;9.70;;;5.70;99.90;;;;;;5072551;28;20514;-74
2023/04/08 00:44:27;;;;;;;11.93;10.47;;;5.70;99.90;;;;;;5075843;28;20787;-74
2023/04/08 00:46:55;;;;;;;12.40;10.20;;;5.70;99.90;;;;;;5067472;28;20758;-75
2023/04/08 00:49:23;;;;;;;13.67;11.17;;;5.80;99.90;;;;;;5070211;28;20849;-74
2023/04/08 00:51:50;;;;;;;10.63;8.57;;;5.80;99.90;;;;;;5074823;28;20443;-74
2023/04/08 00:54:17;;;;;;;13.83;11.50;;;5.80;99.90;;;;;;5078484;28;20443;-74
2023/04/08 00:56:44;;;;;;;12.87;9.30;;;5.80;99.90;;;;;;5071141;28;20526;-75
2023/04/08 00:59:11;;;;;;;11.50;9.60;;;5.90;99.90;;;;;;5071813;28;20678;-74
2023/04/08 01:01:44;;;;;;;12.73;10.10;;;5.80;99.90;;;;;;5069886;28;20592;-74
2023/04/08 01:04:24;;;;;;;11.97;9.50;;;5.80;99.90;;;;;;5067695;28;20512;-74
2023/04/08 01:07:01;;;;;;;10.40;8.60;;;5.80;99.90;;;;;;5061923;28;20444;-74
2023/04/08 01:09:32;;;;;;;13.43;10.30;;;5.80;99.90;;;;;;5049986;28;21009;-74
2023/04/08 01:12:03;;;;;;;15.33;11.10;;;5.80;99.90;;;;;;5052153;28;20957;-74
2023/04/08 01:14:34;;;;;;;15.87;10.63;;;5.80;99.90;;;;;;5056133;28;20472;-74
2023/04/08 01:17:02;;;;;;;11.80;8.93;;;5.80;99.90;;;;;;5047506;28;20488;-76
2023/04/08 01:19:32;;;;;;;13.37;10.07;;;5.70;99.90;;;;;;5062743;28;20786;-76
2023/04/08 01:22:05;;;;;;;13.93;10.93;;;5.70;99.90;;;;;;5062776;28;21056;-76
2023/04/08 01:24:39;;;;;;;13.50;10.37;;;5.70;99.90;;;;;;5063345;28;20514;-77
2023/04/08 01:27:08;;;;;;;14.63;10.47;;;5.80;99.90;;;;;;5060085;28;20460;-76
2023/04/08 01:29:36;;;;;;;11.07;9.77;;;5.80;99.90;;;;;;5054418;28;20874;-75
2023/04/08 01:32:03;;;;;;;15.70;10.70;;;5.80;99.90;;;;;;5065099;28;20519;-76
2023/04/08 01:34:32;;;;;;;14.77;10.90;;;5.80;99.90;;;;;;5060718;28;21052;-76
2023/04/08 01:37:00;;;;;;;13.47;10.30;;;5.70;99.90;;;;;;5051464;28;20573;-76
2023/04/08 01:39:28;;;;;;;15.33;11.00;;;5.70;99.90;;;;;;5053909;28;20465;-76
2023/04/08 01:41:56;;;;;;;12.30;9.40;;;5.70;99.90;;;;;;5053213;28;20928;-76
2023/04/08 01:44:26;;;;;;;14.20;10.73;;;5.70;99.90;;;;;;5050665;28;20812;-77
2023/04/08 01:46:54;;;;;;;13.07;9.70;;;5.80;99.90;;;;;;5060736;28;20457;-76
2023/04/08 01:49:23;;;;;;;12.07;10.13;;;5.80;99.90;;;;;;5045452;28;21154;-76
2023/04/08 01:51:53;;;;;;;17.23;11.60;;;5.80;99.90;;;;;;5052437;28;20981;-76
2023/04/08 01:54:20;;;;;;;10.33;8.87;;;5.80;99.90;;;;;;5053896;28;20449;-76
2023/04/08 01:56:48;;;;;;;15.50;11.30;;;5.70;99.90;;;;;;5058841;28;20498;-76
2023/04/08 01:59:19;;;;;;;12.80;9.73;;;5.70;99.90;;;;;;5051426;28;20527;-76
2023/04/08 02:01:49;;;;;;;13.27;10.30;;;5.70;99.90;;;;;;5055348;28;20825;-77
2023/04/08 02:04:16;;;;;;;12.30;9.30;;;5.70;99.90;;;;;;5058844;28;20927;-76
2023/04/08 02:06:43;;;;;;;13.30;10.83;;;5.90;99.90;;;;;;5058591;28;20464;-76
2023/04/08 02:09:10;;;;;;;13.57;10.53;;;5.90;99.90;;;;;;5054688;28;20519;-76
2023/04/08 02:11:37;;;;;;;11.67;10.47;;;5.80;99.90;;;;;;5059025;28;20453;-76
2023/04/08 02:14:04;;;;;;;13.43;9.90;;;5.60;99.90;;;;;;5053911;28;20942;-76
2023/04/08 02:16:36;;;;;;;16.20;10.80;;;5.50;99.90;;;;;;5054048;28;20824;-75
2023/04/08 02:19:10;;;;;;;13.47;10.33;;;5.60;99.90;;;;;;5050286;28;20445;-76
2023/04/08 02:21:46;;;;;;;13.47;10.13;;;5.60;99.90;;;;;;5051678;28;20523;-76
2023/04/08 02:24:14;;;;;;;12.60;10.27;;;5.70;99.90;;;;;;5057197;28;20506;-76
2023/04/08 02:26:43;;;;;;;13.03;9.60;;;5.80;99.90;;;;;;5055549;28;20449;-76
2023/04/08 02:29:13;;;;;;;14.10;10.37;;;5.80;99.90;;;;;;5050320;28;20636;-76
2023/04/08 02:31:42;;;;;;;13.50;10.80;;;5.80;99.90;;;;;;5057585;28;20464;-76
2023/04/08 02:34:11;;;;;;;14.97;10.93;;;5.80;99.90;;;;;;5055460;28;20486;-76
2023/04/08 02:36:39;;;;;;;14.83;10.60;;;5.80;99.90;;;;;;5062224;28;20484;-76
2023/04/08 02:39:07;;;;;;;11.17;9.50;;;5.80;99.90;;;;;;5054794;28;20552;-76
2023/04/08 02:41:34;;;;;;;12.97;9.10;;;5.80;99.90;;;;;;5059416;28;20448;-76
2023/04/08 02:44:01;;;;;;;15.53;11.20;;;5.70;99.90;;;;;;5052999;28;20464;-76
2023/04/08 02:46:28;;;;;;;13.60;11.10;;;5.70;99.90;;;;;;5060011;28;20906;-76
2023/04/08 02:48:55;;;;;;;12.97;9.90;;;5.70;99.90;;;;;;5060766;28;20453;-76
2023/04/08 02:51:23;;;;;;;13.03;11.70;;;5.60;99.90;;;;;;5062303;28;20862;-76
2023/04/08 02:53:50;;;;;;;17.20;11.37;;;5.60;99.90;;;;;;5061068;28;20762;-76
2023/04/08 02:56:17;;;;;;;15.33;10.80;;;5.60;99.90;;;;;;5054645;28;20500;-76
2023/04/08 02:58:44;;;;;;;15.00;11.30;;;5.60;99.90;;;;;;5061275;28;20962;-76
2023/04/08 03:01:11;;;;;;;11.60;10.40;;;5.60;99.90;;;;;;5056871;28;20464;-76
2023/04/08 03:03:38;;;;;;;13.30;11.20;;;5.60;99.90;;;;;;5062336;28;20518;-75
2023/04/08 03:06:05;;;;;;;13.50;10.13;;;5.50;99.90;;;;;;5054377;28;20452;-76
2023/04/08 03:08:33;;;;;;;13.63;10.67;;;5.40;99.90;;;;;;5064070;28;20444;-76
2023/04/08 03:11:00;;;;;;;12.67;11.03;;;5.40;99.90;;;;;;5048113;28;20472;-76
2023/04/08 03:13:28;;;;;;;12.07;10.77;;;5.40;99.90;;;;;;5046894;28;20449;-76
2023/04/08 03:15:55;;;;;;;11.27;9.30;;;5.40;99.90;;;;;;5057481;28;20456;-76
2023/04/08 03:18:22;;;;;;;14.40;11.10;;;5.40;99.90;;;;;;5057807;28;20586;-76
2023/04/08 03:20:49;;;;;;;13.97;11.20;;;5.40;99.90;;;;;;5062303;28;20843;-76
2023/04/08 03:23:16;;;;;;;14.57;10.80;;;5.40;99.90;;;;;;5057398;28;20503;-76
2023/04/08 03:25:45;;;;;;;12.70;9.83;;;5.40;99.90;;;;;;5059823;28;20525;-76
2023/04/08 03:28:12;;;;;;;11.93;10.07;;;5.40;99.90;;;;;;5063389;28;20536;-76
2023/04/08 03:30:39;;;;;;;13.87;9.57;;;5.30;99.90;;;;;;5054705;28;20509;-75
2023/04/08 03:33:07;;;;;;;11.23;9.40;;;5.30;99.90;;;;;;5053733;28;20465;-74
2023/04/08 03:35:34;;;;;;;14.57;11.00;;;5.20;99.90;;;;;;5061218;28;20499;-75
2023/04/08 03:38:01;;;;;;;11.60;10.40;;;5.20;99.90;;;;;;5053344;28;21013;-74
2023/04/08 03:40:28;;;;;;;12.87;10.37;;;5.20;99.90;;;;;;5058156;28;21002;-75
2023/04/08 03:42:56;;;;;;;14.50;10.27;;;5.10;99.90;;;;;;5047006;28;20530;-74
2023/04/08 03:45:23;;;;;;;13.93;10.03;;;5.10;99.90;;;;;;5055967;28;20491;-74
2023/04/08 03:47:50;;;;;;;12.13;10.83;;;5.00;99.90;;;;;;5053750;28;20449;-74
2023/04/08 03:50:17;;;;;;;15.07;11.07;;;4.90;99.90;;;;;;5053149;28;20448;-75
2023/04/08 03:52:44;;;;;;;11.83;10.50;;;4.80;99.90;;;;;;5050047;28;20503;-74
2023/04/08 03:55:11;;;;;;;16.20;11.23;;;4.80;99.90;;;;;;5060707;28;20448;-74
2023/04/08 03:57:38;;;;;;;15.43;11.80;;;4.70;99.90;;;;;;5056300;28;20888;-74
2023/04/08 04:00:11;;;;;;;18.17;12.73;;;4.70;99.90;;;;;;5054046;28;20448;-74
2023/04/08 04:02:38;;;;;;;14.40;12.43;;;4.70;99.90;;;;;;5050106;28;20481;-73
2023/04/08 04:05:06;;;;;;;14.57;12.47;;;4.60;99.90;;;;;;5061991;28;20498;-74
2023/04/08 04:07:32;;;;;;;15.03;12.60;;;4.60;99.90;;;;;;5060455;28;20461;-74
2023/04/08 04:09:59;;;;;;;17.07;13.03;;;4.60;99.90;;;;;;5056295;28;20557;-74
2023/04/08 04:12:26;;;;;;;16.87;12.37;;;4.60;99.90;;;;;;5063560;28;20494;-73
2023/04/08 04:14:54;;;;;;;14.60;12.17;;;4.60;99.90;;;;;;5065043;28;20526;-74
2023/04/08 04:17:22;;;;;;;18.57;14.13;;;4.60;99.90;;;;;;5051323;28;20484;-74
2023/04/08 04:19:49;;;;;;;15.60;11.50;;;4.60;99.90;;;;;;5051650;28;21007;-74
2023/04/08 04:22:16;;;;;;;17.50;11.43;;;4.50;99.90;;;;;;5058645;28;20947;-74
2023/04/08 04:24:48;;;;;;;15.87;11.90;;;4.60;99.90;;;;;;5056149;28;20456;-75
2023/04/08 04:27:16;;;;;;;14.50;10.87;;;4.50;99.90;;;;;;5056342;28;20440;-74
2023/04/08 04:29:43;;;;;;;16.97;12.97;;;4.50;99.90;;;;;;5052230;28;20961;-74
2023/04/08 04:32:10;;;;;;;14.80;11.10;;;4.50;99.90;;;;;;5057264;28;20939;-74
2023/04/08 04:34:38;;;;;;;16.57;12.20;;;4.50;99.90;;;;;;5052709;28;20935;-74
2023/04/08 04:37:05;;;;;;;16.37;11.60;;;4.50;99.90;;;;;;5055985;28;20460;-75
2023/04/08 04:39:32;;;;;;;18.13;13.27;;;4.50;99.90;;;;;;5064068;28;20969;-75
2023/04/08 04:41:59;;;;;;;21.17;15.13;;;4.50;99.90;;;;;;5058274;28;20510;-74
2023/04/08 04:44:26;;;;;;;17.97;13.43;;;4.50;99.90;;;;;;5055195;28;20679;-75
2023/04/08 04:46:53;;;;;;;12.60;11.10;;;4.50;99.90;;;;;;5059124;28;20900;-74
2023/04/08 04:49:20;;;;;;;19.27;15.57;;;4.50;99.90;;;;;;5054403;28;20467;-74
2023/04/08 04:51:49;;;;;;;13.00;10.53;;;4.50;99.90;;;;;;5055849;28;20552;-75
2023/04/08 04:54:16;;;;;;;14.97;11.30;;;4.50;99.90;;;;;;5057829;28;20452;-75
2023/04/08 04:56:43;;;;;;;16.90;11.10;;;4.50;99.90;;;;;;5053409;28;20480;-75
2023/04/08 04:59:10;;;;;;;14.70;12.07;;;4.50;99.90;;;;;;5056451;28;20512;-74
2023/04/08 05:01:39;;;;;;;16.13;12.70;;;4.50;99.90;;;;;;5049636;28;20453;-74
2023/04/08 05:04:06;;;;;;;15.10;12.00;;;4.60;99.90;;;;;;5048670;28;20514;-75
2023/04/08 05:06:33;;;;;;;15.30;11.87;;;4.50;99.90;;;;;;5052905;28;20526;-74
2023/04/08 05:09:02;;;;;;;15.63;11.57;;;4.60;99.90;;;;;;5055708;28;20467;-75
2023/04/08 05:11:29;;;;;;;14.37;12.87;;;4.50;99.90;;;;;;5047465;28;20444;-76
2023/04/08 05:13:56;;;;;;;15.80;12.00;;;4.60;99.90;;;;;;5049717;28;20920;-77
2023/04/08 05:16:23;;;;;;;14.33;11.23;;;4.50;99.90;;;;;;5058203;28;20456;-77
2023/04/08 05:18:50;;;;;;;22.13;18.63;;;4.60;99.90;;;;;;5065116;28;20491;-77
2023/04/08 05:21:17;;;;;;;35.33;27.50;;;4.70;99.90;;;;;;5055124;28;20468;-77
2023/04/08 05:23:44;;;;;;;38.13;26.27;;;4.70;99.90;;;;;;5066032;28;20460;-78
2023/04/08 05:26:12;;;;;;;31.10;22.57;;;4.70;99.90;;;;;;5062124;28;20483;-76
2023/04/08 05:28:39;;;;;;;56.07;36.70;;;4.60;99.90;;;;;;5064654;28;20448;-76
2023/04/08 05:31:06;;;;;;;103.60;62.80;;;4.60;99.90;;;;;;5059266;28;20513;-77
2023/04/08 05:33:33;;;;;;;51.33;33.50;;;4.70;99.90;;;;;;5058997;28;20496;-75
2023/04/08 05:36:00;;;;;;;120.87;68.37;;;4.70;99.90;;;;;;5048671;28;20914;-75
2023/04/08 05:38:27;;;;;;;168.07;93.20;;;4.80;99.90;;;;;;5054517;28;20520;-75
2023/04/08 05:40:54;;;;;;;374.63;190.63;;;4.80;99.90;;;;;;5064051;28;20448;-75
2023/04/08 05:43:22;;;;;;;179.43;95.70;;;4.70;99.90;;;;;;5058834;28;20471;-75
2023/04/08 05:45:49;;;;;;;217.57;104.73;;;4.80;99.90;;;;;;5065518;28;20449;-75
2023/04/08 05:48:16;;;;;;;50.83;31.37;;;4.70;99.90;;;;;;5061200;28;20441;-75
2023/04/08 05:50:43;;;;;;;48.23;32.40;;;4.70;99.90;;;;;;5054344;28;20487;-75
2023/04/08 05:53:10;;;;;;;165.30;107.93;;;4.80;99.90;;;;;;5056302;28;20524;-75
2023/04/08 05:55:37;;;;;;;193.07;126.40;;;4.90;99.90;;;;;;5061667;28;20465;-77
2023/04/08 05:58:04;;;;;;;32.50;26.00;;;5.20;99.90;;;;;;5062771;28;20479;-75
2023/04/08 06:00:32;;;;;;;26.30;19.40;;;5.30;99.90;;;;;;5058089;28;20460;-75
2023/04/08 06:03:00;;;;;;;17.00;14.50;;;5.10;99.90;;;;;;5062748;28;20505;-75
2023/04/08 06:05:27;;;;;;;16.60;13.60;;;5.10;99.90;;;;;;5063112;28;21082;-75
2023/04/08 06:07:54;;;;;;;21.83;12.30;;;5.10;99.90;;;;;;5058966;28;20579;-75
2023/04/08 06:10:20;;;;;;;16.20;12.43;;;5.10;99.90;;;;;;5063738;28;20526;-75
2023/04/08 06:12:47;;;;;;;15.90;13.43;;;5.20;99.90;;;;;;5056905;28;20503;-75
2023/04/08 06:15:15;;;;;;;13.87;11.40;;;5.30;99.90;;;;;;5059195;28;20472;-74
2023/04/08 06:17:43;;;;;;;16.30;12.70;;;5.30;99.90;;;;;;5063399;28;20487;-75
2023/04/08 06:20:11;;;;;;;14.43;11.80;;;5.30;99.90;;;;;;5064384;28;20521;-75
2023/04/08 06:22:38;;;;;;;17.60;13.27;;;5.40;99.90;;;;;;5058707;28;20476;-76
2023/04/08 06:25:05;;;;;;;16.10;13.87;;;5.40;99.90;;;;;;5055494;28;20448;-75
2023/04/08 06:27:32;;;;;;;16.90;13.70;;;5.30;99.90;;;;;;5057339;28;20452;-76
2023/04/08 06:29:59;;;;;;;17.30;13.10;;;5.30;99.90;;;;;;5052726;28;20463;-76
2023/04/08 06:32:26;;;;;;;12.70;11.40;;;5.20;99.90;;;;;;5054715;28;20453;-75
2023/04/08 06:34:55;;;;;;;14.50;11.80;;;5.10;99.90;;;;;;5057386;28;20559;-75
2023/04/08 06:37:22;;;;;;;18.53;12.13;;;5.10;99.90;;;;;;5062455;28;20575;-76
2023/04/08 06:39:49;;;;;;;21.13;14.00;;;5.10;99.90;;;;;;5059428;28;20558;-75
2023/04/08 06:42:16;;;;;;;14.50;12.97;;;4.90;99.90;;;;;;5055997;28;20456;-76
2023/04/08 06:44:43;;;;;;;19.00;12.80;;;4.90;99.90;;;;;;5062699;28;20573;-76
2023/04/08 06:47:10;;;;;;;16.27;13.67;;;5.00;99.90;;;;;;5064469;28;20837;-76
2023/04/08 06:49:36;;;;;;;22.07;17.50;;;5.20;99.90;;;;;;5045225;28;20527;-75
2023/04/08 06:52:07;;;;;;;20.73;15.93;;;5.30;99.90;;;;;;5048410;28;20530;-75
2023/04/08 06:54:34;;;;;;;19.03;16.47;;;5.40;99.90;;;;;;5049724;28;20471;-75
2023/04/08 06:57:00;;;;;;;24.80;17.47;;;5.20;99.90;;;;;;5048635;28;20524;-76
2023/04/08 06:59:27;;;;;;;17.83;15.97;;;5.10;99.90;;;;;;5059729;28;20963;-76
2023/04/08 07:01:54;;;;;;;19.13;15.50;;;5.10;99.90;;;;;;5044087;28;20512;-76
2023/04/08 07:04:21;;;;;;;18.40;15.90;;;5.00;99.90;;;;;;5055102;28;20453;-76
2023/04/08 07:06:49;;;;;;;17.67;14.37;;;5.00;99.90;;;;;;5051517;28;20491;-75
2023/04/08 07:09:17;;;;;;;16.83;14.70;;;5.10;99.90;;;;;;5055665;28;21184;-75
2023/04/08 07:11:45;;;;;;;17.50;14.83;;;5.10;99.90;;;;;;5051461;28;20453;-75
2023/04/08 07:14:14;;;;;;;19.07;15.37;;;5.10;99.90;;;;;;5042401;28;20548;-74
2023/04/08 07:16:41;;;;;;;17.57;14.10;;;5.00;99.90;;;;;;5060870;28;20468;-74
2023/04/08 07:19:08;;;;;;;18.20;15.17;;;5.10;99.90;;;;;;5055259;28;20519;-75
2023/04/08 07:21:35;;;;;;;17.23;14.07;;;5.00;99.90;;;;;;5049919;28;20455;-75
2023/04/08 07:24:02;;;;;;;18.50;15.27;;;5.00;99.90;;;;;;5052883;28;20465;-75
2023/04/08 07:26:30;;;;;;;15.97;14.27;;;4.90;99.90;;;;;;5051154;28;21155;-75
2023/04/08 07:28:57;;;;;;;17.40;15.63;;;4.80;99.90;;;;;;5052950;28;20804;-75
2023/04/08 07:31:24;;;;;;;17.20;15.20;;;5.00;99.90;;;;;;5059147;28;20951;-75
2023/04/08 07:33:51;;;;;;;16.37;13.53;;;4.90;99.90;;;;;;5050195;28;20595;-75
2023/04/08 07:36:18;;;;;;;15.40;13.43;;;4.90;99.90;;;;;;5046443;28;20513;-75
2023/04/08 07:38:45;;;;;;;19.60;16.93;;;5.00;99.90;;;;;;5054679;28;20606;-76
2023/04/08 07:41:12;;;;;;;17.30;15.27;;;5.00;99.90;;;;;;5045425;28;20909;-76
2023/04/08 07:43:40;;;;;;;18.33;14.73;;;5.20;99.90;;;;;;5055614;28;20467;-76
2023/04/08 07:46:08;;;;;;;18.27;16.33;;;5.30;99.90;;;;;;5046800;28;20460;-77
2023/04/08 07:48:35;;;;;;;17.53;15.10;;;5.10;99.90;;;;;;5048801;28;20500;-76
2023/04/08 07:51:04;;;;;;;19.70;16.17;;;5.10;99.90;;;;;;5054718;28;20486;-77
2023/04/08 07:53:32;;;;;;;21.47;17.70;;;5.00;99.90;;;;;;5052442;28;20484;-76
2023/04/08 07:55:59;;;;;;;19.60;17.50;;;5.00;99.90;;;;;;5044299;28;20492;-76
2023/04/08 07:58:26;;;;;;;19.67;16.60;;;5.10;99.90;;;;;;5058418;28;21068;-77
2023/04/08 08:00:56;;;;;;;16.17;14.53;;;5.00;99.90;;;;;;5045118;28;20445;-76
2023/04/08 08:03:23;;;;;;;16.80;14.00;;;5.00;99.90;;;;;;5054938;28;20464;-76
2023/04/08 08:05:50;;;;;;;19.97;15.30;;;4.90;99.90;;;;;;5056095;28;20821;-76
2023/04/08 08:08:17;;;;;;;15.30;13.20;;;5.00;99.90;;;;;;5049259;28;20444;-76
2023/04/08 08:10:44;;;;;;;18.13;15.33;;;5.00;99.90;;;;;;5047717;28;20510;-76
2023/04/08 08:13:11;;;;;;;19.47;15.70;;;5.10;99.90;;;;;;5046051;28;20471;-77
2023/04/08 08:15:38;;;;;;;19.23;15.50;;;5.00;99.90;;;;;;5057429;28;20444;-77
2023/04/08 08:18:06;;;;;;;20.03;15.40;;;5.20;99.90;;;;;;5047082;28;20487;-77
2023/04/08 08:20:35;;;;;;;17.30;14.30;;;5.30;99.90;;;;;;5052336;28;20504;-76
2023/04/08 08:23:02;;;;;;;17.70;15.27;;;5.30;99.90;;;;;;5059580;28;20449;-77
2023/04/08 08:25:29;;;;;;;18.50;14.63;;;5.20;99.90;;;;;;5062353;28;20490;-84
2023/04/08 08:27:56;;;;;;;17.57;15.37;;;5.10;99.90;;;;;;5061722;28;20506;-78
2023/04/08 08:30:23;;;;;;;17.23;15.30;;;4.90;99.90;;;;;;5056286;28;20488;-80
2023/04/08 08:32:51;;;;;;;17.07;14.27;;;5.00;99.90;;;;;;5057024;28;20455;-78
2023/04/08 08:35:19;;;;;;;13.50;12.10;;;5.00;99.90;;;;;;5055718;28;21080;-78
2023/04/08 08:37:46;;;;;;;15.90;13.80;;;4.80;99.90;;;;;;5062257;28;20569;-78
2023/04/08 08:40:14;;;;;;;14.83;13.30;;;4.90;99.90;;;;;;5060149;28;20537;-78
2023/04/08 08:42:41;;;;;;;18.43;15.83;;;5.00;99.90;;;;;;5062632;28;20460;-78
2023/04/08 08:45:09;;;;;;;15.20;13.60;;;4.90;99.90;;;;;;5055365;28;20525;-78
2023/04/08 08:47:36;;;;;;;15.93;14.13;;;4.90;99.90;;;;;;5064593;28;20455;-77
2023/04/08 08:50:03;;;;;;;17.43;14.83;;;4.90;99.90;;;;;;5051994;28;20457;-77
2023/04/08 08:52:32;;;;;;;17.63;14.80;;;4.90;99.90;;;;;;5056188;28;20461;-78
2023/04/08 08:55:00;;;;;;;16.27;14.53;;;4.90;99.90;;;;;;5049866;28;20520;-78
2023/04/08 08:57:27;;;;;;;15.63;13.60;;;5.00;99.90;;;;;;5055764;28;20495;-78
2023/04/08 08:59:54;;;;;;;16.90;15.03;;;4.90;99.90;;;;;;5057081;28;20575;-77
2023/04/08 09:02:28;;;;;;;20.97;17.33;;;4.80;99.90;;;;;;5053471;28;20459;-77
2023/04/08 09:05:00;;;;;;;14.23;12.77;;;4.80;99.90;;;;;;5055905;28;20803;-77
2023/04/08 09:07:29;;;;;;;19.50;14.27;;;4.80;99.90;;;;;;5058892;28;20521;-77
2023/04/08 09:09:59;;;;;;;17.70;14.23;;;4.80;99.90;;;;;;5047243;28;20967;-78
2023/04/08 09:12:27;;;;;;;18.40;14.17;;;4.90;99.90;;;;;;5050012;28;20774;-78
2023/04/08 09:15:04;;;;;;;19.23;16.33;;;4.90;99.90;;;;;;5049846;28;20874;-78
2023/04/08 09:17:36;;;;;;;18.37;14.07;;;5.00;99.90;;;;;;5053694;28;20552;-78
2023/04/08 09:20:10;;;;;;;18.70;15.60;;;5.00;99.90;;;;;;5051742;28;21011;-79
2023/04/08 09:22:55;;;;;;;18.50;14.37;;;5.10;99.90;;;;;;5061296;28;20914;-78
2023/04/08 09:25:25;;;;;;;24.37;19.97;;;5.10;99.90;;;;;;5051880;28;20455;-77
2023/04/08 09:27:52;;;;;;;24.13;18.90;;;5.10;99.90;;;;;;5052865;28;20470;-78
2023/04/08 09:30:21;;;;;;;30.90;20.33;;;5.10;99.90;;;;;;5047838;28;20455;-78
2023/04/08 09:32:49;;;;;;;22.50;17.90;;;5.10;99.90;;;;;;5058840;28;20471;-78
2023/04/08 09:35:17;;;;;;;19.20;15.07;;;5.10;99.90;;;;;;5060170;28;20520;-78
2023/04/08 09:37:44;;;;;;;17.33;15.60;;;5.10;99.90;;;;;;5054699;28;20525;-78
2023/04/08 09:40:11;;;;;;;22.90;17.77;;;5.10;99.90;;;;;;5063070;28;20541;-78
2023/04/08 09:42:41;;;;;;;21.30;17.90;;;5.00;99.90;;;;;;5063912;28;20460;-77
2023/04/08 09:45:10;;;;;;;19.97;14.87;;;5.10;99.90;;;;;;5056880;28;20522;-78
2023/04/08 09:47:48;;;;;;;17.73;15.23;;;5.00;99.90;;;;;;5060416;28;20517;-77
2023/04/08 09:50:19;;;;;;;17.37;15.50;;;4.90;99.90;;;;;;5055782;28;20460;-78
2023/04/08 09:52:53;;;;;;;18.07;14.67;;;4.90;99.90;;;;;;5057359;28;20562;-78
2023/04/08 09:55:23;;;;;;;19.77;14.97;;;4.90;99.90;;;;;;5050941;28;21018;-77
2023/04/08 09:58:00;;;;;;;16.50;13.33;;;4.80;99.90;;;;;;5057787;28;20468;-77
2023/04/08 10:00:32;;;;;;;17.17;13.40;;;4.80;99.90;;;;;;5057593;28;20491;-76
2023/04/08 10:03:10;;;;;;;17.40;13.30;;;4.80;99.90;;;;;;5056773;28;20555;-76
2023/04/08 10:05:38;;;;;;;17.13;13.83;;;4.70;99.90;;;;;;5058840;28;20797;-77
2023/04/08 10:08:07;;;;;;;15.40;11.20;;;4.60;99.90;;;;;;5059934;28;20899;-77
2023/04/08 10:10:35;;;;;;;15.10;12.80;;;4.60;99.90;;;;;;5054460;28;20561;-77
2023/04/08 10:13:05;;;;;;;17.67;12.43;;;4.70;99.90;;;;;;5053641;28;20959;-77
2023/04/08 10:15:33;;;;;;;18.63;14.27;;;4.60;99.90;;;;;;5054844;28;20506;-77
2023/04/08 10:18:32;;;;;;;14.53;12.77;;;4.70;99.90;;;;;;5048821;28;20932;-77
2023/04/08 10:20:59;;;;;;;13.77;11.17;;;4.70;99.90;;;;;;5050315;28;20481;-77
2023/04/08 10:23:53;;;;;;;13.57;11.80;;;4.70;99.90;;;;;;5057035;28;20920;-77
2023/04/08 10:26:33;;;;;;;14.50;11.77;;;4.90;99.90;;;;;;5056200;28;20449;-77
2023/04/08 10:29:32;;;;;;;12.93;11.37;;;5.10;99.90;;;;;;5049057;28;20468;-77
2023/04/08 10:32:00;;;;;;;14.23;11.67;;;5.10;99.90;;;;;;5053617;28;20536;-78
2023/04/08 10:34:28;;;;;;;13.63;12.23;;;5.00;99.90;;;;;;5056697;28;20456;-77
2023/04/08 10:36:58;;;;;;;13.47;11.73;;;5.00;99.90;;;;;;5055496;28;20464;-76
2023/04/08 10:39:26;;;;;;;16.67;14.70;;;4.90;99.90;;;;;;5050342;28;20484;-77
2023/04/08 10:41:53;;;;;;;15.57;12.17;;;4.90;99.90;;;;;;5058382;28;20460;-77
2023/04/08 10:44:22;;;;;;;16.30;13.37;;;5.00;99.90;;;;;;5050793;28;20461;-77
2023/04/08 10:46:52;;;;;;;18.73;13.57;;;5.20;99.90;;;;;;5058217;28;20954;-77
2023/04/08 10:49:20;;;;;;;15.40;12.93;;;5.10;99.90;;;;;;5059595;28;20522;-77
2023/04/08 10:51:48;;;;;;;14.80;12.00;;;5.20;99.90;;;;;;5060182;28;20964;-76
2023/04/08 10:54:16;;;;;;;17.10;13.07;;;5.10;99.90;;;;;;5059352;28;20453;-76
2023/04/08 10:56:48;;;;;;;18.67;14.80;;;5.10;99.90;;;;;;5053162;28;20484;-76
2023/04/08 10:59:16;;;;;;;19.20;14.33;;;5.20;99.90;;;;;;5060243;28;20498;-76
2023/04/08 11:01:45;;;;;;;17.53;14.87;;;5.30;99.90;;;;;;5064402;28;20483;-77
2023/04/08 11:04:15;;;;;;;17.30;13.70;;;5.40;99.90;;;;;;5058330;28;20465;-76
2023/04/08 11:06:43;;;;;;;15.73;14.13;;;5.40;99.90;;;;;;5058035;28;20468;-76
2023/04/08 11:09:11;;;;;;;15.23;12.50;;;5.30;99.90;;;;;;5061185;28;20458;-76
2023/04/08 11:11:38;;;;;;;17.00;12.20;;;5.30;99.90;;;;;;5060512;28;20900;-76
2023/04/08 11:14:06;;;;;;;18.33;16.50;;;5.30;99.90;;;;;;5049014;28;20448;-82
2023/04/08 11:16:33;;;;;;;16.93;14.80;;;5.40;99.90;;;;;;5056593;28;20509;-78
2023/04/08 11:19:04;;;;;;;16.87;13.63;;;5.50;99.90;;;;;;5057838;28;20471;-77
2023/04/08 11:21:35;;;;;;;15.37;13.00;;;5.50;99.90;;;;;;5056351;28;20464;-77
2023/04/08 11:24:07;;;;;;;13.77;12.50;;;5.40;99.90;;;;;;5052368;28;20476;-77
2023/04/08 11:26:34;;;;;;;13.07;11.90;;;5.40;99.90;;;;;;5042147;28;20917;-78
2023/04/08 11:29:02;;;;;;;14.33;12.60;;;5.40;99.90;;;;;;5038332;28;20445;-77
2023/04/08 11:31:30;;;;;;;16.80;13.50;;;5.40;99.90;;;;;;5041933;28;20461;-77
2023/04/08 11:33:57;;;;;;;20.50;13.63;;;5.30;99.90;;;;;;5039080;28;20947;-77
2023/04/08 11:36:25;;;;;;;16.33;14.07;;;5.20;99.90;;;;;;5040641;28;21060;-78
2023/04/08 11:38:55;;;;;;;15.77;14.07;;;5.30;99.90;;;;;;5039295;28;20472;-78
2023/04/08 11:41:22;;;;;;;17.00;14.67;;;5.40;99.90;;;;;;5041956;28;20481;-78
2023/04/08 11:43:56;;;;;;;16.70;14.00;;;5.40;99.90;;;;;;5038811;28;20539;-78
2023/04/08 11:46:24;;;;;;;16.20;14.23;;;5.30;99.90;;;;;;5040586;28;20453;-77
2023/04/08 11:49:01;;;;;;;13.90;12.10;;;5.30;99.90;;;;;;5041663;28;20465;-78
2023/04/08 11:51:28;;;;;;;16.57;14.60;;;5.40;99.90;;;;;;5041508;28;20456;-77
2023/04/08 11:53:57;;;;;;;15.37;13.23;;;5.30;99.90;;;;;;5043726;28;20845;-77
2023/04/08 11:56:25;;;;;;;16.63;13.90;;;5.40;99.90;;;;;;5039140;28;20575;-77
2023/04/08 11:58:52;;;;;;;14.60;12.80;;;5.40;99.90;;;;;;5045759;28;20445;-79
2023/04/08 12:01:20;;;;;;;13.93;12.43;;;5.40;99.90;;;;;;5032497;28;20583;-79
2023/04/08 12:03:55;;;;;;;18.83;14.80;;;5.50;99.90;;;;;;5044119;28;20468;-78
2023/04/08 12:06:23;;;;;;;17.80;14.57;;;5.50;99.90;;;;;;5034167;28;20492;-76
2023/04/08 12:08:50;;;;;;;13.93;11.93;;;5.40;99.90;;;;;;5039651;28;20449;-76
2023/04/08 12:11:18;;;;;;;14.43;12.93;;;5.40;99.90;;;;;;5037859;28;20453;-76
2023/04/08 12:13:45;;;;;;;13.27;11.87;;;5.40;99.90;;;;;;5051550;28;20458;-76
2023/04/08 12:16:13;;;;;;;15.57;13.83;;;5.40;99.90;;;;;;5041326;28;20976;-76
2023/04/08 12:18:39;;;;;;;15.63;13.20;;;5.40;99.90;;;;;;5039351;28;20500;-76
2023/04/08 12:21:06;;;;;;;14.40;12.87;;;5.40;99.90;;;;;;5032738;28;20487;-76
2023/04/08 12:23:33;;;;;;;15.50;13.80;;;5.40;99.90;;;;;;5040982;28;21299;-77
2023/04/08 12:26:01;;;;;;;15.57;13.23;;;5.50;99.90;;;;;;5035079;28;20915;-76
2023/04/08 12:28:29;;;;;;;16.23;13.83;;;5.60;99.90;;;;;;5034662;28;20458;-76
2023/04/08 12:30:56;;;;;;;15.47;13.30;;;5.60;99.90;;;;;;5034228;28;20887;-76
2023/04/08 12:33:23;;;;;;;16.70;14.23;;;5.70;99.90;;;;;;5039386;28;20800;-76
2023/04/08 12:35:51;;;;;;;19.90;15.67;;;5.70;99.90;;;;;;5039116;28;20465;-76
2023/04/08 12:38:19;;;;;;;14.07;11.80;;;5.70;99.90;;;;;;5039946;28;20469;-76
2023/04/08 12:40:46;;;;;;;14.70;13.20;;;5.90;99.90;;;;;;5042513;28;20480;-76
2023/04/08 12:43:13;;;;;;;16.33;14.10;;;6.10;99.90;;;;;;5040209;28;20465;-76